マナウス の空港の天気 - METARとTAF

エドワルド ゴメス国際空港(マナウス) ( SBEG / MAO ) - ブラジル アマゾナス州マナウス
飛行場実況気象(Metar)
観測時間03/09 03:17 AMT (03/09 07:17 UTC)
風向・風速南南東 1m/s
視程10km以上
天気現象
全天の4割程度の雲 雲底高度 180m
全天の8割程度の雲 雲底高度 3050m
気温24℃
湿度94%
気圧1010hPa
METARSBEG 090717Z 16002KT 9999 SCT006 BKN100 24/23 Q1010
過去の天気等 Google飛行場航空写真 Wunderground天気予報

過去48時間のMETAR

飛行場予報(TAF)
発表時間: 3/09 00:00 AMT (3/09 04:00 UTC)
予報対象時間: 9日2時 AMT ~ 10日2時 AMT
風向・風速東北東 3m/s
視程8000m
全天の4割程度の雲 雲底高度 210m
9日2時 AMT ~ 9日4時 AMT に徐々に
風向・風速北 3m/s
9日8時 AMT ~ 9日11時 AMT に徐々に
風向・風速東北東 3m/s
視程7000m
全天の8割程度の雲 雲底高度 460m
少しの塔状積雲 雲底高度 760m
9日14時 AMT から 確率 40% で
天気現象雷雨
全天の8割程度の雲 雲底高度 460m
少しの積乱雲 雲底高度 760m
9日20時 AMT ~ 9日23時 AMT に徐々に
風向・風速北北東 3m/s
視程8000m
全天の4割程度の雲 雲底高度 300m
TAF SBEG 090400Z 0906/1006 07005KT 8000 SCT007 TN23/0910Z TX28/0916Z
BECMG 0906/0908 01005KT
BECMG 0912/0915 06005KT 7000 BKN015 FEW025TCU
PROB40 0918/0923 TSRA BKN015 FEW025CB
BECMG 1000/1003 03005KT 8000 SCT010 RMK PHC